Time;durP1;ratioP1;P1;durP2;ratioP2;P2;SDS_P1;SDS_P2;PMS_P1;PMS_P2;Temp;Humidity;BMP_temperature;BMP_pressure;BME280_temperature;BME280_humidity;BME280_pressure;Samples;Min_cycle;Max_cycle;Signal;HPM_P1;HPM_P2
2021/06/07 00:00:53;;;;;;;14.57;12.55;;;19.00;99.90;;;;;;5091050;28;20200;-60
2021/06/07 00:03:19;;;;;;;18.10;13.40;;;19.10;99.90;;;;;;5090889;28;20204;-60
2021/06/07 00:05:46;;;;;;;15.52;13.18;;;19.10;99.90;;;;;;5090673;28;20228;-59
2021/06/07 00:08:12;;;;;;;15.43;13.07;;;19.10;99.90;;;;;;5090771;28;20208;-60
2021/06/07 00:10:39;;;;;;;17.83;13.40;;;19.10;99.90;;;;;;5090853;28;20204;-60
2021/06/07 00:13:06;;;;;;;16.83;13.48;;;19.10;99.90;;;;;;5090994;28;20208;-61
2021/06/07 00:15:34;;;;;;;14.65;12.38;;;19.20;99.90;;;;;;5090733;28;20268;-60
2021/06/07 00:18:00;;;;;;;15.07;12.95;;;19.20;99.90;;;;;;5090778;28;20208;-61
2021/06/07 00:20:30;;;;;;;15.60;12.35;;;19.20;99.90;;;;;;5090686;28;20650;-60
2021/06/07 00:22:58;;;;;;;14.73;12.73;;;19.20;99.90;;;;;;5090652;28;20668;-61
2021/06/07 00:25:25;;;;;;;15.63;12.88;;;19.20;99.90;;;;;;5090501;28;20285;-60
2021/06/07 00:27:51;;;;;;;16.50;13.02;;;19.30;99.90;;;;;;5090673;28;20212;-60
2021/06/07 00:30:18;;;;;;;14.52;12.93;;;19.30;99.90;;;;;;5091229;28;20245;-60
2021/06/07 00:32:44;;;;;;;14.55;12.35;;;19.30;99.90;;;;;;5090842;28;20204;-60
2021/06/07 00:35:12;;;;;;;16.83;13.10;;;19.30;99.90;;;;;;5090516;28;20227;-60
2021/06/07 00:37:38;;;;;;;16.45;12.98;;;19.30;99.90;;;;;;5090900;28;20212;-60
2021/06/07 00:40:07;;;;;;;19.88;13.30;;;19.30;99.90;;;;;;5090828;28;20205;-61
2021/06/07 00:42:33;;;;;;;16.35;13.40;;;19.30;99.90;;;;;;5090857;28;20204;-61
2021/06/07 00:44:59;;;;;;;14.30;12.80;;;19.10;99.90;;;;;;5090520;28;20582;-60
2021/06/07 00:47:26;;;;;;;17.42;12.35;;;19.00;99.90;;;;;;5090793;28;20208;-61
2021/06/07 00:49:53;;;;;;;16.83;13.50;;;19.10;99.90;;;;;;5090462;28;20699;-60
2021/06/07 00:52:19;;;;;;;14.35;12.85;;;19.10;99.90;;;;;;5090777;28;20201;-60
2021/06/07 00:54:45;;;;;;;16.45;13.23;;;19.10;99.90;;;;;;5090715;28;20285;-60
2021/06/07 00:57:13;;;;;;;15.38;12.90;;;19.10;99.90;;;;;;5091087;28;20211;-60
2021/06/07 00:59:39;;;;;;;16.52;13.65;;;19.10;99.90;;;;;;5090726;28;20728;-60
2021/06/07 01:02:05;;;;;;;15.77;12.60;;;19.20;99.90;;;;;;5090469;28;20219;-60
2021/06/07 01:04:31;;;;;;;15.73;13.13;;;19.10;99.90;;;;;;5090537;28;20605;-60
2021/06/07 01:06:58;;;;;;;16.38;13.57;;;19.10;99.90;;;;;;5090532;28;20310;-60
2021/06/07 01:09:24;;;;;;;16.35;13.93;;;19.10;99.90;;;;;;5090320;28;20249;-60
2021/06/07 01:11:50;;;;;;;15.10;12.90;;;19.10;99.90;;;;;;5090300;28;20679;-60
2021/06/07 01:14:18;;;;;;;15.13;13.27;;;19.20;99.90;;;;;;5093242;28;20211;-60
2021/06/07 01:16:44;;;;;;;15.52;13.10;;;19.10;99.90;;;;;;5093926;28;20203;-60
2021/06/07 01:19:11;;;;;;;17.05;13.40;;;19.10;99.90;;;;;;5094002;28;20207;-60
2021/06/07 01:21:37;;;;;;;15.98;12.77;;;19.10;99.90;;;;;;5093776;28;20589;-61
2021/06/07 01:24:06;;;;;;;18.25;13.75;;;19.10;99.90;;;;;;5093672;28;20207;-60
2021/06/07 01:26:32;;;;;;;17.98;13.20;;;19.10;99.90;;;;;;5093746;28;20225;-60
2021/06/07 01:28:59;;;;;;;16.58;13.80;;;19.20;99.90;;;;;;5093545;28;20231;-60
2021/06/07 01:31:25;;;;;;;16.38;13.40;;;19.10;99.90;;;;;;5093585;28;20349;-60
2021/06/07 01:33:54;;;;;;;19.05;13.63;;;19.10;99.90;;;;;;5093674;28;20208;-60
2021/06/07 01:36:20;;;;;;;18.30;13.77;;;19.20;99.90;;;;;;5093786;28;20220;-60
2021/06/07 01:38:47;;;;;;;20.70;14.57;;;19.10;99.90;;;;;;5093541;28;20204;-61
2021/06/07 01:41:17;;;;;;;18.85;14.63;;;19.10;99.90;;;;;;5093560;28;20204;-61
2021/06/07 01:43:46;;;;;;;18.65;15.27;;;19.10;99.90;;;;;;5094171;28;20208;-60
2021/06/07 01:46:12;;;;;;;18.90;15.02;;;19.10;99.90;;;;;;5094430;28;20273;-60
2021/06/07 01:48:39;;;;;;;17.83;15.05;;;19.10;99.90;;;;;;5094781;28;20204;-60
2021/06/07 01:51:07;;;;;;;19.60;15.50;;;19.10;99.90;;;;;;5093290;28;20714;-60
2021/06/07 01:53:34;;;;;;;21.73;16.23;;;19.10;99.90;;;;;;5093097;28;20753;-60
2021/06/07 01:56:02;;;;;;;18.42;14.98;;;19.10;99.90;;;;;;5093611;28;20696;-60
2021/06/07 01:58:30;;;;;;;19.27;15.75;;;19.10;99.90;;;;;;5092881;28;20632;-60
2021/06/07 02:01:00;;;;;;;17.80;15.07;;;19.10;99.90;;;;;;5093357;28;20204;-60
2021/06/07 02:03:27;;;;;;;16.60;14.38;;;19.10;99.90;;;;;;5093140;28;20233;-60
2021/06/07 02:05:57;;;;;;;16.40;14.25;;;19.10;99.90;;;;;;5093276;28;20227;-60
2021/06/07 02:08:23;;;;;;;17.33;13.68;;;19.10;99.90;;;;;;5093088;28;20490;-60
2021/06/07 02:10:52;;;;;;;19.45;14.02;;;19.10;99.90;;;;;;5092880;28;20207;-60
2021/06/07 02:13:19;;;;;;;21.23;15.65;;;19.10;99.90;;;;;;5093098;28;20208;-60
2021/06/07 02:15:54;;;;;;;18.33;14.40;;;19.10;99.90;;;;;;5092898;28;20235;-60
2021/06/07 02:18:20;;;;;;;16.33;14.30;;;19.20;99.90;;;;;;5092885;28;20729;-60
2021/06/07 02:20:47;;;;;;;15.63;13.95;;;19.20;99.90;;;;;;5092904;28;20204;-60
2021/06/07 02:23:13;;;;;;;16.50;13.95;;;19.20;99.90;;;;;;5092766;28;20523;-60
2021/06/07 02:25:39;;;;;;;18.10;14.18;;;19.20;99.90;;;;;;5091470;28;20549;-61
2021/06/07 02:28:11;;;;;;;17.27;13.68;;;19.20;99.90;;;;;;5092680;28;20211;-60
2021/06/07 02:30:37;;;;;;;15.05;13.27;;;19.10;99.90;;;;;;5092825;28;20200;-60
2021/06/07 02:33:05;;;;;;;19.42;14.00;;;19.10;99.90;;;;;;5092715;28;20589;-60
2021/06/07 02:35:32;;;;;;;18.02;14.13;;;19.10;99.90;;;;;;5092439;28;20690;-60
2021/06/07 02:37:59;;;;;;;16.90;13.73;;;19.10;99.90;;;;;;5092485;28;20212;-60
2021/06/07 02:40:27;;;;;;;18.45;12.65;;;19.10;99.90;;;;;;5092974;28;20208;-60
2021/06/07 02:42:53;;;;;;;18.65;13.80;;;19.10;99.90;;;;;;5092692;28;20204;-59
2021/06/07 02:45:22;;;;;;;18.33;14.70;;;19.20;99.90;;;;;;5092272;28;20224;-60
2021/06/07 02:47:50;;;;;;;15.60;13.90;;;19.10;99.90;;;;;;5091995;28;20208;-60
2021/06/07 02:50:21;;;;;;;17.95;13.43;;;19.20;99.90;;;;;;5092138;28;20200;-60
2021/06/07 02:52:48;;;;;;;16.38;14.52;;;19.20;99.90;;;;;;5092395;28;20188;-59
2021/06/07 02:55:17;;;;;;;16.15;14.15;;;19.20;99.90;;;;;;5092040;28;20216;-60
2021/06/07 02:57:44;;;;;;;19.83;14.38;;;19.20;99.90;;;;;;5092080;28;20204;-61
2021/06/07 03:00:13;;;;;;;18.25;14.50;;;19.20;99.90;;;;;;5091969;28;20227;-60
2021/06/07 03:02:39;;;;;;;15.68;13.55;;;19.20;99.90;;;;;;5091994;28;20223;-60
2021/06/07 03:05:07;;;;;;;18.63;15.07;;;19.20;99.90;;;;;;5091546;28;20655;-60
2021/06/07 03:07:35;;;;;;;19.58;15.00;;;19.20;99.90;;;;;;5092041;28;20682;-60
2021/06/07 03:10:01;;;;;;;21.30;14.90;;;19.20;99.90;;;;;;5091942;28;20695;-60
2021/06/07 03:12:27;;;;;;;23.45;15.80;;;19.20;99.90;;;;;;5092865;28;20227;-60
2021/06/07 03:14:54;;;;;;;18.70;14.90;;;19.10;99.90;;;;;;5092112;28;20731;-60
2021/06/07 03:17:20;;;;;;;17.90;13.90;;;19.10;99.90;;;;;;5092357;28;20257;-60
2021/06/07 03:19:46;;;;;;;18.70;15.00;;;18.80;99.90;;;;;;5091981;28;20683;-60
2021/06/07 03:22:13;;;;;;;18.50;14.27;;;18.80;99.90;;;;;;5092307;28;20234;-60
2021/06/07 03:24:40;;;;;;;19.40;14.20;;;18.80;99.90;;;;;;5118707;22;20711;-58
2021/06/07 03:27:07;;;;;;;18.30;14.43;;;18.80;99.90;;;;;;5132668;27;20233;-60
2021/06/07 03:29:33;;;;;;;19.40;13.50;;;18.80;99.90;;;;;;5132402;27;20199;-60
2021/06/07 03:31:59;;;;;;;21.42;15.07;;;18.70;99.90;;;;;;5132248;27;20580;-60
2021/06/07 03:34:25;;;;;;;19.20;15.27;;;18.70;99.90;;;;;;5132132;27;20259;-61
2021/06/07 03:36:52;;;;;;;18.80;14.82;;;18.70;99.90;;;;;;5132360;27;20272;-61
2021/06/07 03:39:18;;;;;;;16.80;13.77;;;18.70;99.90;;;;;;5132466;27;20213;-61
2021/06/07 03:41:45;;;;;;;17.52;13.98;;;18.70;99.90;;;;;;5133123;27;20203;-60
2021/06/07 03:44:12;;;;;;;20.65;14.27;;;18.60;99.90;;;;;;5132420;27;20670;-60
2021/06/07 03:46:38;;;;;;;20.33;14.93;;;18.60;99.90;;;;;;5131946;27;20233;-61
2021/06/07 03:49:04;;;;;;;18.67;15.50;;;18.60;99.90;;;;;;5131964;27;20565;-61
2021/06/07 03:51:30;;;;;;;18.83;15.53;;;18.70;99.90;;;;;;5132278;27;20198;-61
2021/06/07 03:53:57;;;;;;;18.80;15.85;;;18.80;99.90;;;;;;5132102;27;20276;-61
2021/06/07 03:56:23;;;;;;;20.02;15.40;;;18.80;99.90;;;;;;5131977;27;20219;-61
2021/06/07 03:58:50;;;;;;;22.80;16.88;;;18.80;99.90;;;;;;5131874;27;20237;-60
2021/06/07 04:01:16;;;;;;;24.90;17.70;;;18.90;99.90;;;;;;5131880;27;20207;-61
2021/06/07 04:03:42;;;;;;;22.77;17.73;;;18.90;99.90;;;;;;5131790;27;20202;-60
2021/06/07 04:06:09;;;;;;;23.58;17.52;;;18.90;99.90;;;;;;5132011;27;20701;-60
2021/06/07 04:08:35;;;;;;;21.30;16.40;;;18.90;99.90;;;;;;5132041;28;20517;-60
2021/06/07 04:11:01;;;;;;;23.55;17.58;;;18.80;99.90;;;;;;5132140;28;20209;-60
2021/06/07 04:13:28;;;;;;;22.10;17.20;;;18.80;99.90;;;;;;5131813;28;20199;-60
2021/06/07 04:15:55;;;;;;;24.15;18.60;;;18.80;99.90;;;;;;5131773;28;20222;-61
2021/06/07 04:18:21;;;;;;;26.48;17.33;;;18.80;99.90;;;;;;5131761;28;20416;-61
2021/06/07 04:20:47;;;;;;;26.52;19.63;;;18.80;99.90;;;;;;5132006;28;20202;-60
2021/06/07 04:23:14;;;;;;;27.10;18.90;;;18.80;99.90;;;;;;5132381;28;20210;-61
2021/06/07 04:25:40;;;;;;;26.17;19.10;;;18.80;99.90;;;;;;5131488;28;20234;-60
2021/06/07 04:28:06;;;;;;;26.23;18.77;;;18.80;99.90;;;;;;5131688;28;20207;-61
2021/06/07 04:30:33;;;;;;;27.40;18.95;;;18.80;99.90;;;;;;5131710;28;20203;-63
2021/06/07 04:33:01;;;;;;;41.60;31.52;;;18.70;99.90;;;;;;5132139;28;20202;-61
2021/06/07 04:35:28;;;;;;;28.70;18.40;;;18.80;99.90;;;;;;5131546;28;20225;-60
2021/06/07 04:37:54;;;;;;;30.80;19.52;;;18.70;99.90;;;;;;5131557;28;20199;-60
2021/06/07 04:40:22;;;;;;;27.30;19.73;;;18.70;99.90;;;;;;5131586;28;20206;-61
2021/06/07 04:42:49;;;;;;;29.48;19.58;;;18.70;99.90;;;;;;5131112;28;20564;-61
2021/06/07 04:45:16;;;;;;;26.15;18.65;;;18.60;99.90;;;;;;5130753;28;20279;-61
2021/06/07 04:47:43;;;;;;;25.30;18.30;;;18.70;99.90;;;;;;5132087;27;20206;-61
2021/06/07 04:50:13;;;;;;;24.95;19.20;;;18.80;99.90;;;;;;5135727;27;20207;-61
2021/06/07 04:52:57;;;;;;;28.85;18.40;;;18.80;99.90;;;;;;5135796;27;20207;-61
2021/06/07 04:55:25;;;;;;;26.45;18.88;;;18.90;99.90;;;;;;5135302;27;20280;-61
2021/06/07 04:57:51;;;;;;;27.33;19.57;;;18.90;99.90;;;;;;5135528;27;20275;-61
2021/06/07 05:00:20;;;;;;;22.65;17.58;;;18.90;99.90;;;;;;5135667;27;20531;-61
2021/06/07 05:02:47;;;;;;;28.05;17.73;;;19.10;99.90;;;;;;5135512;27;20213;-61
2021/06/07 05:05:14;;;;;;;25.42;17.02;;;19.10;99.90;;;;;;5134888;27;20276;-61
2021/06/07 05:07:41;;;;;;;23.88;16.13;;;19.20;99.90;;;;;;5134787;27;20208;-60
2021/06/07 05:10:08;;;;;;;20.13;15.43;;;19.20;99.90;;;;;;5134487;27;20209;-60
2021/06/07 05:12:34;;;;;;;21.38;14.23;;;19.00;99.90;;;;;;5134960;27;20266;-60
2021/06/07 05:15:01;;;;;;;20.17;15.05;;;18.80;99.90;;;;;;5134696;27;20230;-60
2021/06/07 05:17:27;;;;;;;19.55;14.23;;;18.80;99.90;;;;;;5134802;27;20199;-61
2021/06/07 05:19:53;;;;;;;20.42;15.00;;;18.80;99.90;;;;;;5134732;27;20262;-60
2021/06/07 05:22:21;;;;;;;20.25;13.68;;;18.80;99.90;;;;;;5134824;27;20673;-60
2021/06/07 05:24:47;;;;;;;14.85;12.52;;;18.80;99.90;;;;;;5134373;27;20237;-60
2021/06/07 05:27:14;;;;;;;16.17;12.65;;;18.80;99.90;;;;;;5134925;27;20274;-60
2021/06/07 05:29:40;;;;;;;14.10;12.38;;;18.80;99.90;;;;;;5134636;27;20207;-60
2021/06/07 05:32:07;;;;;;;19.80;13.13;;;18.70;99.90;;;;;;5134598;27;20252;-60
2021/06/07 05:34:34;;;;;;;16.75;13.20;;;18.60;99.90;;;;;;5134184;27;20662;-60
2021/06/07 05:37:00;;;;;;;16.88;12.82;;;18.70;99.90;;;;;;5134510;27;20682;-60
2021/06/07 05:39:28;;;;;;;17.15;13.70;;;18.80;99.90;;;;;;5134275;27;20203;-60
2021/06/07 05:41:54;;;;;;;17.35;12.88;;;18.90;99.90;;;;;;5134350;27;20203;-59
2021/06/07 05:44:21;;;;;;;15.85;12.82;;;19.00;99.90;;;;;;5134451;27;20203;-60
2021/06/07 05:46:48;;;;;;;18.20;13.10;;;19.10;99.90;;;;;;5134116;27;20231;-60
2021/06/07 05:49:14;;;;;;;14.98;12.27;;;19.10;99.90;;;;;;5133997;27;20202;-61
2021/06/07 05:51:41;;;;;;;14.40;12.27;;;19.20;99.90;;;;;;5134109;27;20207;-61
2021/06/07 05:54:07;;;;;;;19.52;12.98;;;19.20;99.90;;;;;;5133978;27;20210;-60
2021/06/07 05:56:37;;;;;;;16.00;12.23;;;19.30;99.90;;;;;;5134028;27;20643;-60
2021/06/07 05:59:04;;;;;;;13.95;12.07;;;19.30;99.90;;;;;;5133820;27;20199;-61
2021/06/07 06:01:31;;;;;;;16.52;12.13;;;19.10;99.90;;;;;;5134128;27;20211;-61
2021/06/07 06:03:58;;;;;;;16.33;12.73;;;19.00;99.90;;;;;;5133882;27;20203;-60
2021/06/07 06:06:25;;;;;;;16.13;12.57;;;18.90;99.90;;;;;;5133680;27;20223;-60
2021/06/07 06:08:52;;;;;;;16.00;12.13;;;19.00;99.90;;;;;;5133694;27;20667;-59
2021/06/07 06:11:19;;;;;;;17.00;12.52;;;19.10;99.90;;;;;;5133924;27;20209;-60
2021/06/07 06:13:48;;;;;;;13.70;12.07;;;19.10;99.90;;;;;;5133727;27;20199;-60
2021/06/07 06:16:14;;;;;;;16.95;12.30;;;19.10;99.90;;;;;;5133967;27;20226;-60
2021/06/07 06:18:41;;;;;;;15.98;13.05;;;19.20;99.90;;;;;;5133699;27;20211;-60
2021/06/07 06:21:07;;;;;;;13.55;11.52;;;19.10;99.90;;;;;;5133729;27;20227;-60
2021/06/07 06:23:34;;;;;;;15.57;11.55;;;19.10;99.90;;;;;;5133757;27;20203;-60
2021/06/07 06:26:03;;;;;;;17.25;11.90;;;18.90;99.90;;;;;;5133678;27;20222;-60
2021/06/07 06:28:30;;;;;;;18.00;13.07;;;18.90;99.90;;;;;;5133836;27;20209;-60
2021/06/07 06:30:57;;;;;;;16.52;12.20;;;18.90;99.90;;;;;;5133604;27;20207;-60
2021/06/07 06:33:24;;;;;;;14.02;11.75;;;18.90;99.90;;;;;;5133225;27;20203;-60
2021/06/07 06:35:50;;;;;;;14.27;11.65;;;18.80;99.90;;;;;;5133451;27;20223;-60
2021/06/07 06:38:17;;;;;;;13.75;11.00;;;18.80;99.90;;;;;;5133246;27;20211;-59
2021/06/07 06:40:45;;;;;;;17.40;12.32;;;18.90;99.90;;;;;;5133216;27;20282;-60
2021/06/07 06:43:11;;;;;;;14.60;11.88;;;19.10;99.90;;;;;;5132957;27;20198;-60
2021/06/07 06:45:37;;;;;;;17.63;14.50;;;19.20;99.90;;;;;;5132836;27;20231;-60
2021/06/07 06:48:05;;;;;;;15.35;11.95;;;19.30;99.90;;;;;;5132976;27;20216;-60
2021/06/07 06:50:34;;;;;;;15.90;11.77;;;19.40;99.90;;;;;;5133246;27;20203;-60
2021/06/07 06:53:00;;;;;;;14.63;12.57;;;19.30;99.90;;;;;;5133171;27;20209;-59
2021/06/07 06:55:27;;;;;;;16.08;12.50;;;19.30;99.90;;;;;;5132815;27;20241;-60
2021/06/07 06:57:53;;;;;;;15.50;12.10;;;19.30;99.90;;;;;;5133198;27;20235;-60
2021/06/07 07:00:21;;;;;;;17.73;13.05;;;19.30;99.90;;;;;;5132793;27;20202;-60
2021/06/07 07:02:47;;;;;;;14.85;12.48;;;19.50;99.90;;;;;;5132758;27;20666;-61
2021/06/07 07:05:14;;;;;;;15.50;12.75;;;19.70;99.90;;;;;;5132958;27;20276;-60
2021/06/07 07:07:41;;;;;;;14.40;11.90;;;19.80;99.90;;;;;;5132841;27;20222;-59
2021/06/07 07:10:08;;;;;;;15.43;12.10;;;19.70;99.90;;;;;;5132293;27;20206;-60
2021/06/07 07:12:35;;;;;;;16.83;12.02;;;19.60;99.90;;;;;;5132660;27;20207;-59
2021/06/07 07:15:01;;;;;;;17.77;14.10;;;19.60;99.90;;;;;;5132537;27;20227;-59
2021/06/07 07:17:28;;;;;;;15.48;12.30;;;19.50;99.90;;;;;;5132771;27;20252;-60
2021/06/07 07:19:55;;;;;;;16.48;12.13;;;19.40;99.90;;;;;;5132774;27;20207;-60
2021/06/07 07:22:22;;;;;;;15.88;12.68;;;19.00;99.90;;;;;;5132530;27;20211;-60
2021/06/07 07:24:49;;;;;;;15.65;12.48;;;18.80;99.90;;;;;;5132485;27;20234;-61
2021/06/07 07:27:17;;;;;;;13.65;10.75;;;18.80;99.90;;;;;;5133119;27;20223;-58
2021/06/07 07:29:44;;;;;;;15.95;13.27;;;18.80;99.90;;;;;;5132620;27;20199;-59
2021/06/07 07:32:11;;;;;;;14.40;11.07;;;19.10;99.90;;;;;;5132840;27;20202;-60
2021/06/07 07:34:40;;;;;;;17.58;12.52;;;19.40;99.90;;;;;;5132161;27;20203;-60
2021/06/07 07:37:06;;;;;;;16.02;12.73;;;19.80;99.90;;;;;;5132409;27;20748;-61
2021/06/07 07:39:34;;;;;;;13.70;11.43;;;19.90;99.90;;;;;;5132409;27;20203;-61
2021/06/07 07:42:00;;;;;;;15.52;11.88;;;19.90;99.90;;;;;;5132324;27;20202;-62
2021/06/07 07:44:27;;;;;;;16.23;11.50;;;20.00;99.90;;;;;;5131898;27;20211;-62
2021/06/07 07:46:53;;;;;;;13.57;11.82;;;20.30;99.90;;;;;;5132432;27;20234;-61
2021/06/07 07:49:20;;;;;;;17.20;11.98;;;20.50;99.90;;;;;;5132373;27;20248;-64
2021/06/07 07:51:46;;;;;;;17.80;13.83;;;20.70;99.90;;;;;;5112866;27;20430;-60
2021/06/07 07:54:13;;;;;;;17.05;12.68;;;20.90;99.90;;;;;;5111289;28;20199;-61
2021/06/07 07:56:41;;;;;;;14.35;11.60;;;21.10;99.90;;;;;;5111093;28;20224;-60
2021/06/07 07:59:08;;;;;;;13.98;11.05;;;21.20;99.90;;;;;;5111204;28;20208;-61
2021/06/07 08:01:34;;;;;;;13.45;11.63;;;21.20;99.90;;;;;;5111268;28;20265;-60
2021/06/07 08:04:00;;;;;;;15.27;11.38;;;21.30;99.90;;;;;;5111132;28;20589;-60
2021/06/07 08:06:27;;;;;;;14.80;11.85;;;21.30;99.90;;;;;;5111147;28;20235;-60
2021/06/07 08:08:53;;;;;;;16.55;12.85;;;21.30;99.90;;;;;;5111472;28;20214;-59
2021/06/07 08:11:20;;;;;;;14.40;12.13;;;21.20;99.90;;;;;;5110908;28;20203;-59
2021/06/07 08:13:48;;;;;;;15.93;12.45;;;21.30;99.90;;;;;;5111267;28;20227;-61
2021/06/07 08:16:14;;;;;;;13.63;11.43;;;21.30;99.90;;;;;;5111023;28;20598;-59
2021/06/07 08:18:41;;;;;;;13.05;11.18;;;21.40;99.90;;;;;;5111650;28;20210;-59
2021/06/07 08:21:07;;;;;;;16.05;12.68;;;21.50;99.90;;;;;;5110880;28;20215;-61
2021/06/07 08:23:34;;;;;;;23.85;12.85;;;21.60;99.90;;;;;;5113058;28;20199;-59
2021/06/07 08:26:00;;;;;;;16.45;12.85;;;21.50;99.90;;;;;;5115263;28;20226;-60
2021/06/07 08:28:26;;;;;;;16.40;12.90;;;21.50;99.90;;;;;;5115373;28;20207;-59
2021/06/07 08:30:54;;;;;;;18.60;13.13;;;21.50;99.90;;;;;;5115371;28;20214;-59
2021/06/07 08:33:20;;;;;;;19.13;13.77;;;21.40;99.90;;;;;;5115293;28;20203;-60
2021/06/07 08:35:46;;;;;;;17.10;12.75;;;21.40;99.90;;;;;;5115081;28;20231;-60
2021/06/07 08:38:13;;;;;;;17.88;12.50;;;21.40;99.90;;;;;;5114848;28;20200;-60
2021/06/07 08:40:39;;;;;;;15.88;12.15;;;21.40;99.90;;;;;;5114978;28;20211;-60
2021/06/07 08:43:06;;;;;;;16.92;12.75;;;21.30;99.90;;;;;;5114934;28;20203;-59
2021/06/07 08:45:34;;;;;;;18.08;12.50;;;21.10;99.90;;;;;;5114685;28;20223;-59
2021/06/07 08:48:02;;;;;;;14.35;12.30;;;21.20;99.90;;;;;;5115091;28;20385;-60
2021/06/07 08:50:30;;;;;;;16.70;12.05;;;21.40;99.90;;;;;;5114977;28;20203;-60
2021/06/07 08:52:56;;;;;;;13.88;12.02;;;21.60;99.90;;;;;;5114909;28;20241;-59
2021/06/07 08:55:24;;;;;;;17.50;12.30;;;21.70;99.90;;;;;;5114792;28;20220;-60
2021/06/07 08:57:53;;;;;;;15.20;11.10;;;21.60;99.90;;;;;;5115105;28;20310;-59
2021/06/07 09:00:22;;;;;;;12.77;11.30;;;21.40;99.90;;;;;;5115108;28;20203;-60
2021/06/07 09:02:48;;;;;;;14.40;11.23;;;21.20;99.90;;;;;;5114943;28;20699;-59
2021/06/07 09:05:17;;;;;;;14.57;11.60;;;21.00;99.90;;;;;;5114620;28;20223;-60
2021/06/07 09:07:53;;;;;;;14.15;11.02;;;20.90;99.90;;;;;;5114527;28;20603;-60
2021/06/07 09:10:20;;;;;;;15.90;12.02;;;21.10;99.90;;;;;;5114802;28;20238;-60
2021/06/07 09:12:52;;;;;;;13.90;11.07;;;21.30;99.90;;;;;;5114429;28;20661;-59
2021/06/07 09:15:36;;;;;;;16.30;12.20;;;21.40;99.90;;;;;;5114360;28;20247;-59
2021/06/07 09:18:04;;;;;;;14.65;12.18;;;21.30;99.90;;;;;;5114211;28;20225;-59
2021/06/07 09:20:33;;;;;;;16.60;12.50;;;21.10;99.90;;;;;;5114600;28;20578;-59
2021/06/07 09:23:05;;;;;;;14.88;12.15;;;21.00;99.90;;;;;;5114359;28;20203;-59
2021/06/07 09:25:34;;;;;;;14.88;12.23;;;21.20;99.90;;;;;;5114448;28;20715;-59
2021/06/07 09:28:13;;;;;;;16.98;13.30;;;21.50;99.90;;;;;;5114049;28;20203;-60
2021/06/07 09:30:44;;;;;;;13.65;11.95;;;21.80;99.90;;;;;;5113963;28;20620;-59
2021/06/07 09:33:23;;;;;;;18.75;13.02;;;22.10;99.90;;;;;;5113952;28;20332;-60
2021/06/07 09:39:13;;;;;;;17.63;13.50;;;22.20;99.90;;;;;;5162506;27;20295;-60
2021/06/07 09:41:54;;;;;;;15.38;13.45;;;22.40;99.90;;;;;;5127002;27;20234;-65
2021/06/07 09:44:24;;;;;;;17.25;12.35;;;22.20;99.90;;;;;;5129489;27;20297;-60
2021/06/07 09:46:51;;;;;;;16.35;12.50;;;22.20;99.90;;;;;;5109024;28;20206;-60
2021/06/07 09:49:19;;;;;;;15.05;12.27;;;22.20;99.90;;;;;;5113439;28;20203;-60
2021/06/07 09:51:54;;;;;;;16.70;13.43;;;22.30;99.90;;;;;;5113331;28;20207;-60
2021/06/07 09:54:22;;;;;;;18.17;13.40;;;22.40;99.90;;;;;;5109509;28;20316;-60
2021/06/07 09:56:50;;;;;;;15.88;13.57;;;22.40;99.90;;;;;;5109105;28;20695;-61
2021/06/07 09:59:27;;;;;;;15.02;12.63;;;22.40;99.90;;;;;;5108191;28;20207;-60
2021/06/07 10:01:55;;;;;;;15.55;13.20;;;22.60;99.90;;;;;;5108200;28;20593;-60
2021/06/07 10:04:22;;;;;;;14.23;12.50;;;22.80;99.90;;;;;;5108163;28;20750;-60
2021/06/07 10:06:48;;;;;;;18.90;13.70;;;22.90;99.90;;;;;;5108044;28;20230;-60
2021/06/07 10:09:17;;;;;;;17.23;14.68;;;23.00;99.90;;;;;;5107804;28;20207;-60
2021/06/07 10:11:45;;;;;;;15.93;13.20;;;23.00;99.90;;;;;;5108090;28;20353;-59
2021/06/07 10:14:14;;;;;;;18.83;14.32;;;23.00;99.90;;;;;;5107840;28;20260;-62
2021/06/07 10:16:53;;;;;;;16.98;14.82;;;23.10;99.90;;;;;;5107806;28;20758;-60
2021/06/07 10:19:20;;;;;;;17.35;13.00;;;23.20;99.90;;;;;;5108169;28;20474;-59
2021/06/07 10:21:48;;;;;;;17.27;14.18;;;23.30;99.90;;;;;;5108121;28;20257;-60
2021/06/07 10:24:16;;;;;;;19.33;14.20;;;23.50;99.90;;;;;;5108102;28;20299;-59
2021/06/07 10:26:44;;;;;;;18.75;14.75;;;23.60;99.90;;;;;;5107400;28;20566;-59
2021/06/07 10:29:11;;;;;;;20.02;16.52;;;23.90;99.90;;;;;;5107574;28;20200;-59
2021/06/07 10:31:39;;;;;;;18.15;14.52;;;24.20;99.90;;;;;;5107757;28;20249;-59
2021/06/07 10:34:08;;;;;;;16.63;14.23;;;24.40;99.90;;;;;;5107778;28;20211;-60
2021/06/07 10:36:43;;;;;;;18.50;14.60;;;24.30;99.90;;;;;;5107577;28;20255;-60
2021/06/07 10:39:26;;;;;;;17.30;14.55;;;24.40;99.90;;;;;;5107502;28;20667;-60
2021/06/07 10:42:18;;;;;;;19.08;14.43;;;24.70;99.90;;;;;;5107810;28;20208;-59
2021/06/07 10:44:48;;;;;;;14.98;13.38;;;25.00;99.90;;;;;;5107665;28;20227;-60
2021/06/07 10:47:16;;;;;;;21.38;14.40;;;25.00;99.90;;;;;;5107512;28;20303;-59
2021/06/07 10:49:45;;;;;;;17.73;14.07;;;24.90;99.90;;;;;;5095744;28;20238;-60
2021/06/07 10:52:15;;;;;;;17.75;14.85;;;24.80;99.90;;;;;;5094144;28;20215;-60
2021/06/07 10:54:43;;;;;;;17.75;14.75;;;24.70;99.90;;;;;;5093929;28;20211;-60
2021/06/07 10:57:39;;;;;;;18.15;15.73;;;24.50;99.90;;;;;;5093754;28;20707;-60
2021/06/07 11:00:22;;;;;;;19.67;15.55;;;24.40;99.90;;;;;;5093685;28;20580;-60
2021/06/07 11:02:51;;;;;;;20.02;15.50;;;24.00;99.90;;;;;;5093839;28;20815;-60
2021/06/07 11:05:19;;;;;;;17.60;15.30;;;23.70;99.90;;;;;;5093589;28;20219;-60
2021/06/07 11:07:59;;;;;;;17.75;15.20;;;23.50;99.90;;;;;;5093355;28;20258;-60
2021/06/07 11:10:27;;;;;;;24.40;17.00;;;23.30;99.90;;;;;;5093285;28;20211;-60
2021/06/07 11:12:57;;;;;;;22.45;16.98;;;23.20;99.90;;;;;;5093594;28;20684;-60
2021/06/07 11:15:25;;;;;;;22.80;17.27;;;23.20;99.90;;;;;;5093411;28;20224;-60
2021/06/07 11:17:52;;;;;;;27.17;18.98;;;23.10;99.90;;;;;;5093348;28;20251;-60
2021/06/07 11:20:35;;;;;;;26.42;19.25;;;23.10;99.90;;;;;;5093893;28;20204;-60
2021/06/07 11:23:10;;;;;;;21.92;18.20;;;23.10;99.90;;;;;;5093848;28;20214;-60
2021/06/07 11:25:50;;;;;;;23.15;18.20;;;23.10;99.90;;;;;;5093177;28;20228;-60
2021/06/07 11:28:39;;;;;;;24.00;18.88;;;23.10;99.90;;;;;;5093036;28;20200;-60
2021/06/07 11:31:27;;;;;;;23.60;18.85;;;22.90;99.90;;;;;;5093115;28;20698;-60
2021/06/07 11:33:54;;;;;;;22.85;19.27;;;22.90;99.90;;;;;;5092884;28;20215;-60
2021/06/07 11:36:38;;;;;;;23.27;19.42;;;22.80;99.90;;;;;;5093344;28;20600;-60
2021/06/07 11:39:06;;;;;;;25.23;18.45;;;22.70;99.90;;;;;;5092808;28;20208;-60
2021/06/07 11:41:42;;;;;;;25.77;20.35;;;22.70;99.90;;;;;;5093084;28;20231;-60
2021/06/07 11:44:10;;;;;;;24.55;19.77;;;22.60;99.90;;;;;;5092868;28;20199;-60
2021/06/07 11:46:56;;;;;;;25.33;21.95;;;22.60;99.90;;;;;;5092969;28;20235;-60
2021/06/07 11:49:23;;;;;;;32.13;27.95;;;22.50;99.90;;;;;;5092457;28;20204;-60
2021/06/07 11:52:08;;;;;;;32.75;23.08;;;22.40;99.90;;;;;;5092460;28;20209;-60
2021/06/07 11:54:51;;;;;;;28.10;21.38;;;22.40;99.90;;;;;;5092731;28;20215;-60
2021/06/07 11:57:20;;;;;;;30.02;20.52;;;22.20;99.90;;;;;;5092568;28;20315;-60
2021/06/07 11:59:57;;;;;;;26.83;20.73;;;22.20;99.90;;;;;;5091605;28;20208;-60
2021/06/07 12:02:24;;;;;;;27.00;21.83;;;22.00;99.90;;;;;;5092451;28;20215;-61
2021/06/07 12:04:51;;;;;;;25.60;20.48;;;21.90;99.90;;;;;;5092145;28;20322;-61
2021/06/07 12:07:18;;;;;;;26.00;20.45;;;21.90;99.90;;;;;;5092508;28;20211;-61
2021/06/07 12:09:48;;;;;;;25.38;20.70;;;22.00;99.90;;;;;;5092388;28;20219;-61
2021/06/07 12:12:15;;;;;;;25.75;20.38;;;22.20;99.90;;;;;;5092435;28;20219;-61
2021/06/07 12:14:45;;;;;;;23.67;19.85;;;22.20;99.90;;;;;;5091974;28;20683;-61
2021/06/07 12:17:17;;;;;;;23.10;19.65;;;22.50;99.90;;;;;;5092217;28;20292;-61
2021/06/07 12:19:45;;;;;;;23.88;19.20;;;22.70;99.90;;;;;;5092695;28;20208;-60
2021/06/07 12:22:28;;;;;;;24.23;17.80;;;23.30;99.90;;;;;;5092149;28;20600;-60
2021/06/07 12:24:57;;;;;;;21.48;16.73;;;24.10;99.90;;;;;;5092014;28;20670;-60
2021/06/07 12:30:20;;;;;;;20.80;16.75;;;25.60;99.90;;;;;;5081024;28;20196;-60
2021/06/07 12:32:49;;;;;;;18.38;15.88;;;26.10;99.90;;;;;;5092013;28;20208;-60
2021/06/07 12:35:17;;;;;;;19.42;16.95;;;26.30;99.90;;;;;;5091749;28;20220;-61
2021/06/07 12:37:46;;;;;;;19.70;15.85;;;26.50;99.90;;;;;;5091627;28;20228;-60
2021/06/07 12:40:22;;;;;;;19.77;16.10;;;26.80;99.90;;;;;;5091812;28;20700;-61